createdAt,value
2022-11-05T00:08:49.136Z,14.38
2022-11-05T00:11:45.365Z,14.42
2022-11-05T00:14:35.304Z,14.54
2022-11-05T00:17:04.333Z,14.56
2022-11-05T00:19:33.291Z,14.51
2022-11-05T00:22:20.782Z,14.53
2022-11-05T00:25:08.206Z,14.48
2022-11-05T00:27:37.323Z,14.41
2022-11-05T00:30:08.263Z,14.46
2022-11-05T00:32:39.075Z,14.48
2022-11-05T00:35:12.250Z,14.52
2022-11-05T00:37:45.635Z,14.52
2022-11-05T00:40:17.974Z,14.54
2022-11-05T00:43:05.658Z,14.40
2022-11-05T00:45:34.662Z,14.54
2022-11-05T00:48:22.457Z,14.55
2022-11-05T00:50:54.409Z,14.50
2022-11-05T00:53:25.219Z,14.49
2022-11-05T00:55:58.007Z,14.48
2022-11-05T00:58:30.827Z,14.46
2022-11-05T01:01:01.353Z,14.48
2022-11-05T01:03:41.231Z,14.53
2022-11-05T01:06:26.478Z,14.54
2022-11-05T01:08:57.158Z,14.58
2022-11-05T01:11:37.822Z,14.56
2022-11-05T01:14:12.943Z,14.51
2022-11-05T01:16:42.553Z,14.55
2022-11-05T01:19:12.814Z,14.53
2022-11-05T01:21:42.153Z,14.55
2022-11-05T01:24:12.760Z,14.48
2022-11-05T01:26:41.848Z,14.48
2022-11-05T01:29:12.952Z,14.51
2022-11-05T01:31:42.378Z,14.53
2022-11-05T01:34:11.567Z,14.56
2022-11-05T01:36:43.681Z,14.51
2022-11-05T01:39:12.549Z,14.57
2022-11-05T01:41:41.491Z,14.64
2022-11-05T01:44:48.809Z,14.57
2022-11-05T01:47:58.625Z,14.59
2022-11-05T01:50:51.581Z,14.50
2022-11-05T01:53:34.808Z,14.50
2022-11-05T01:56:33.702Z,14.54
2022-11-05T01:59:32.249Z,14.71
2022-11-05T02:02:05.458Z,14.56
2022-11-05T02:04:49.758Z,14.50
2022-11-05T02:07:21.721Z,14.55
2022-11-05T02:10:02.842Z,14.58
2022-11-05T02:12:34.014Z,14.46
2022-11-05T02:15:07.533Z,14.55
2022-11-05T02:17:49.371Z,14.51
2022-11-05T02:20:53.364Z,14.64
2022-11-05T02:23:55.121Z,14.71
2022-11-05T02:26:48.643Z,14.61
2022-11-05T02:29:20.429Z,14.54
2022-11-05T02:32:33.776Z,14.63
2022-11-05T02:35:33.734Z,14.58
2022-11-05T02:38:38.422Z,14.59
2022-11-05T02:41:41.950Z,14.63
2022-11-05T02:44:29.653Z,14.46
2022-11-05T02:47:18.259Z,14.49
2022-11-05T02:50:17.210Z,14.49
2022-11-05T02:53:15.064Z,14.46
2022-11-05T02:55:49.792Z,14.50
2022-11-05T02:58:18.883Z,14.39
2022-11-05T03:00:54.817Z,14.53
2022-11-05T03:03:46.850Z,14.50
2022-11-05T03:06:40.327Z,14.49
2022-11-05T03:09:17.144Z,14.44
2022-11-05T03:11:55.989Z,14.41
2022-11-05T03:14:54.891Z,14.37
2022-11-05T03:17:44.429Z,14.42
2022-11-05T03:20:21.074Z,14.54
2022-11-05T03:23:23.009Z,14.67
2022-11-05T03:25:59.767Z,14.59
2022-11-05T03:28:34.057Z,14.63
2022-11-05T03:31:07.732Z,14.59
2022-11-05T03:33:40.606Z,14.49
2022-11-05T03:36:20.030Z,14.51
2022-11-05T03:39:05.537Z,14.50
2022-11-05T03:41:36.161Z,14.51
2022-11-05T03:44:34.075Z,14.46
2022-11-05T03:47:07.849Z,14.49
2022-11-05T03:49:46.671Z,14.49
2022-11-05T03:52:23.418Z,14.47
2022-11-05T03:54:53.177Z,14.43
2022-11-05T03:57:34.559Z,14.45
2022-11-05T04:00:32.301Z,14.40
2022-11-05T04:03:08.278Z,14.39
2022-11-05T04:05:46.681Z,14.33
2022-11-05T04:08:36.114Z,14.35
2022-11-05T04:11:41.531Z,14.29
2022-11-05T04:14:21.927Z,14.36
2022-11-05T04:17:11.672Z,14.37
2022-11-05T04:20:29.009Z,14.30
2022-11-05T04:23:32.654Z,14.18
2022-11-05T04:26:01.462Z,14.24
2022-11-05T04:28:51.652Z,14.25
2022-11-05T04:31:20.531Z,14.20
2022-11-05T04:33:49.277Z,14.11
2022-11-05T04:36:21.145Z,14.04
2022-11-05T04:38:50.037Z,14.16
2022-11-05T04:41:24.307Z,14.06
2022-11-05T04:43:53.586Z,14.03
2022-11-05T04:46:22.384Z,14.07
2022-11-05T04:53:52.407Z,13.84
2022-11-05T04:56:24.303Z,13.86
2022-11-05T04:58:53.779Z,13.85
2022-11-05T05:01:28.703Z,13.86
2022-11-05T05:03:57.860Z,13.82
2022-11-05T05:06:26.708Z,13.79
2022-11-05T05:08:55.635Z,13.83
2022-11-05T05:11:24.440Z,13.75
2022-11-05T05:13:53.253Z,13.84
2022-11-05T05:16:25.020Z,13.89
2022-11-05T05:18:55.065Z,13.89
2022-11-05T05:21:39.737Z,13.90
2022-11-05T05:24:13.082Z,13.80
2022-11-05T05:26:47.664Z,13.73
2022-11-05T05:29:17.521Z,13.80
2022-11-05T05:31:46.795Z,13.84
2022-11-05T05:34:16.163Z,13.85
2022-11-05T05:36:47.692Z,13.90
2022-11-05T05:39:16.758Z,13.85
2022-11-05T05:41:45.613Z,13.84
2022-11-05T05:44:14.490Z,13.85
2022-11-05T05:46:43.215Z,13.43
2022-11-05T05:49:12.850Z,12.65
2022-11-05T05:51:41.918Z,11.70
2022-11-05T05:54:12.761Z,11.07
2022-11-05T05:56:45.055Z,10.68
2022-11-05T05:59:13.933Z,10.92
2022-11-05T06:01:43.166Z,10.50
2022-11-05T06:04:12.165Z,10.63
2022-11-05T06:06:41.018Z,10.50
2022-11-05T06:09:09.863Z,10.14
2022-11-05T06:11:38.631Z,9.40
2022-11-05T06:14:07.796Z,9.55
2022-11-05T06:16:36.695Z,9.68
2022-11-05T06:19:06.093Z,9.63
2022-11-05T06:21:35.217Z,9.54
2022-11-05T06:24:04.900Z,9.57
2022-11-05T06:26:33.684Z,9.70
2022-11-05T06:29:03.004Z,9.71
2022-11-05T06:31:33.470Z,9.52
2022-11-05T06:34:02.510Z,9.18
2022-11-05T06:36:34.002Z,9.25
2022-11-05T06:39:03.383Z,9.40
2022-11-05T06:41:45.648Z,9.26
2022-11-05T06:44:23.974Z,9.34
2022-11-05T06:46:52.744Z,9.52
2022-11-05T06:49:25.324Z,9.42
2022-11-05T06:51:54.198Z,9.61
2022-11-05T06:54:23.025Z,9.65
2022-11-05T06:56:51.951Z,9.58
2022-11-05T06:59:20.718Z,9.38
2022-11-05T07:01:49.596Z,9.63
2022-11-05T07:04:18.392Z,9.77
2022-11-05T07:06:47.254Z,9.50
2022-11-05T07:12:45.553Z,9.30
2022-11-05T07:15:14.404Z,9.68
2022-11-05T07:17:43.224Z,9.62
2022-11-05T07:20:12.541Z,9.71
2022-11-05T07:22:41.452Z,9.54
2022-11-05T07:25:10.373Z,9.53
2022-11-05T07:27:41.038Z,9.64
2022-11-05T07:30:12.243Z,9.70
2022-11-05T07:32:41.726Z,9.70
2022-11-05T07:35:11.272Z,9.59
2022-11-05T07:37:50.396Z,9.70
2022-11-05T07:40:23.853Z,9.74
2022-11-05T07:42:56.710Z,9.14
2022-11-05T07:45:26.681Z,9.50
2022-11-05T07:47:57.916Z,9.22
2022-11-05T07:50:28.838Z,9.49
2022-11-05T07:53:05.782Z,9.38
2022-11-05T07:55:36.420Z,9.31
2022-11-05T07:58:05.587Z,9.23
2022-11-05T08:00:35.477Z,9.03
2022-11-05T08:03:24.235Z,8.98
2022-11-05T08:05:53.168Z,8.87
2022-11-05T08:08:21.993Z,8.76
2022-11-05T08:10:50.924Z,8.66
2022-11-05T08:13:20.062Z,8.49
2022-11-05T08:15:48.863Z,8.44
2022-11-05T08:18:19.481Z,8.36
2022-11-05T08:20:49.828Z,8.26
2022-11-05T08:23:18.611Z,8.22
2022-11-05T08:25:47.426Z,8.12
2022-11-05T08:28:16.476Z,8.00
2022-11-05T08:30:45.256Z,7.96
2022-11-05T08:33:15.744Z,7.89
2022-11-05T08:35:45.347Z,7.79
2022-11-05T08:38:18.768Z,7.71
2022-11-05T08:40:56.742Z,7.57
2022-11-05T08:43:26.938Z,7.57
2022-11-05T08:45:56.300Z,7.60
2022-11-05T08:48:25.152Z,7.61
2022-11-05T08:50:54.087Z,7.61
2022-11-05T08:53:23.036Z,7.36
2022-11-05T08:55:52.379Z,7.47
2022-11-05T08:58:23.796Z,7.48
2022-11-05T09:00:52.690Z,7.50
2022-11-05T09:03:24.688Z,7.45
2022-11-05T09:05:53.504Z,7.43
2022-11-05T09:08:22.400Z,7.39
2022-11-05T09:10:51.232Z,7.35
2022-11-05T09:13:20.516Z,7.31
2022-11-05T09:15:51.160Z,7.25
2022-11-05T09:18:21.137Z,7.13
2022-11-05T09:20:50.093Z,7.07
2022-11-05T09:23:19.001Z,7.05
2022-11-05T09:25:48.550Z,6.98
2022-11-05T09:28:21.014Z,6.94
2022-11-05T09:30:54.075Z,6.89
2022-11-05T09:33:38.256Z,6.86
2022-11-05T09:36:07.528Z,6.80
2022-11-05T09:38:37.137Z,6.75
2022-11-05T09:41:21.872Z,6.64
2022-11-05T09:43:56.494Z,6.52
2022-11-05T09:46:34.277Z,6.10
2022-11-05T09:49:08.451Z,6.06
2022-11-05T09:51:41.581Z,6.39
2022-11-05T09:54:12.904Z,6.35
2022-11-05T09:56:43.051Z,6.35
2022-11-05T09:59:42.036Z,6.35
2022-11-05T10:02:20.377Z,6.27
2022-11-05T10:04:56.694Z,6.18
2022-11-05T10:07:28.365Z,6.17
2022-11-05T10:10:03.158Z,6.15
2022-11-05T10:12:35.491Z,6.17
2022-11-05T10:15:45.950Z,6.15
2022-11-05T10:18:31.337Z,6.10
2022-11-05T10:21:03.014Z,6.18
2022-11-05T10:23:34.844Z,6.17
2022-11-05T10:26:16.789Z,6.01
2022-11-05T10:28:45.784Z,6.05
2022-11-05T10:31:18.387Z,6.01
2022-11-05T10:33:51.528Z,6.03
2022-11-05T10:36:23.407Z,6.04
2022-11-05T10:38:53.826Z,6.04
2022-11-05T10:41:34.994Z,6.12
2022-11-05T10:44:33.882Z,6.17
2022-11-05T10:47:24.332Z,6.22
2022-11-05T10:50:02.470Z,6.21
2022-11-05T10:53:02.334Z,6.17
2022-11-05T10:55:38.436Z,6.04
2022-11-05T10:58:16.470Z,6.00
2022-11-05T11:01:00.698Z,5.89
2022-11-05T11:03:54.382Z,5.74
2022-11-05T11:06:29.512Z,5.79
2022-11-05T11:09:03.817Z,5.79
2022-11-05T11:11:41.456Z,5.79
2022-11-05T11:14:13.461Z,5.77
2022-11-05T11:16:44.919Z,5.75
2022-11-05T11:19:31.219Z,5.77
2022-11-05T11:22:06.314Z,5.72
2022-11-05T11:24:42.704Z,5.70
2022-11-05T11:27:27.564Z,5.71
2022-11-05T11:30:10.474Z,5.73
2022-11-05T11:32:48.571Z,5.85
2022-11-05T11:35:30.554Z,5.71
2022-11-05T11:38:01.968Z,5.85
2022-11-05T11:40:36.462Z,5.94
2022-11-05T11:43:15.160Z,6.01
2022-11-05T11:45:47.797Z,5.94
2022-11-05T11:48:23.448Z,5.85
2022-11-05T11:50:53.483Z,5.96
2022-11-05T11:53:24.543Z,5.99
2022-11-05T11:55:56.540Z,5.87
2022-11-05T11:58:41.143Z,5.88
2022-11-05T12:01:21.496Z,5.95
2022-11-05T12:03:59.674Z,5.95
2022-11-05T12:06:42.487Z,5.88
2022-11-05T12:09:47.815Z,5.79
2022-11-05T12:12:22.428Z,6.01
2022-11-05T12:15:16.347Z,6.07
2022-11-05T12:17:55.524Z,5.94
2022-11-05T12:20:58.134Z,5.91
2022-11-05T12:23:55.730Z,5.91
2022-11-05T12:26:54.568Z,5.88
2022-11-05T12:29:41.621Z,5.82
2022-11-05T12:32:41.205Z,5.73
2022-11-05T12:35:34.087Z,5.77
2022-11-05T12:38:13.506Z,5.73
2022-11-05T12:41:12.786Z,5.73
2022-11-05T12:44:10.928Z,5.60
2022-11-05T12:46:45.152Z,5.69
2022-11-05T12:49:47.772Z,5.63
2022-11-05T12:52:34.281Z,5.60
2022-11-05T12:55:20.026Z,5.53
2022-11-05T12:57:53.914Z,5.43
2022-11-05T13:00:28.512Z,5.39
2022-11-05T13:03:34.404Z,5.41
2022-11-05T13:06:10.482Z,5.38
2022-11-05T13:08:45.386Z,5.55
2022-11-05T13:11:18.327Z,5.58
2022-11-05T13:14:02.512Z,5.65
2022-11-05T13:16:34.014Z,5.62
2022-11-05T13:19:38.748Z,5.52
2022-11-05T13:22:26.047Z,5.49
2022-11-05T13:24:56.516Z,5.40
2022-11-05T13:27:50.933Z,5.46
2022-11-05T13:30:23.612Z,5.54
2022-11-05T13:33:12.674Z,5.54
2022-11-05T13:36:24.502Z,5.42
2022-11-05T13:39:45.306Z,5.39
2022-11-05T13:42:37.793Z,5.49
2022-11-05T13:45:30.813Z,5.56
2022-11-05T13:48:06.569Z,5.54
2022-11-05T13:50:59.689Z,5.34
2022-11-05T13:53:34.079Z,5.51
2022-11-05T13:56:31.573Z,5.58
2022-11-05T13:59:37.399Z,5.53
2022-11-05T14:02:18.755Z,5.67
2022-11-05T14:04:56.683Z,5.77
2022-11-05T14:07:33.343Z,5.63
2022-11-05T14:10:23.358Z,5.85
2022-11-05T14:12:55.531Z,5.85
2022-11-05T14:15:30.369Z,5.71
2022-11-05T14:18:08.251Z,5.93
2022-11-05T14:20:44.077Z,5.93
2022-11-05T14:23:19.267Z,5.78
2022-11-05T14:25:54.309Z,5.88
2022-11-05T14:28:35.534Z,5.95
2022-11-05T14:31:20.114Z,5.91
2022-11-05T14:34:02.320Z,5.92
2022-11-05T14:36:41.825Z,6.03
2022-11-05T14:39:22.614Z,6.01
2022-11-05T14:42:01.163Z,6.03
2022-11-05T14:44:32.459Z,5.96
2022-11-05T14:47:08.867Z,6.01
2022-11-05T14:49:51.820Z,6.11
2022-11-05T14:52:22.037Z,6.11
2022-11-05T14:54:54.790Z,6.15
2022-11-05T14:57:56.168Z,6.20
2022-11-05T15:00:31.076Z,6.17
2022-11-05T15:03:03.853Z,6.23
2022-11-05T15:05:35.293Z,6.27
2022-11-05T15:08:42.710Z,6.31
2022-11-05T15:11:34.397Z,6.26
2022-11-05T15:14:08.554Z,6.23
2022-11-05T15:16:43.887Z,6.29
2022-11-05T15:19:24.607Z,6.28
2022-11-05T15:21:55.609Z,6.27
2022-11-05T15:24:28.867Z,6.36
2022-11-05T15:27:06.953Z,6.35
2022-11-05T15:29:36.274Z,6.38
2022-11-05T15:32:06.490Z,6.23
2022-11-05T15:34:38.242Z,6.24
2022-11-05T15:37:13.137Z,6.43
2022-11-05T15:39:47.981Z,6.38
2022-11-05T15:42:19.743Z,6.49
2022-11-05T15:44:50.936Z,6.52
2022-11-05T15:47:22.800Z,6.53
2022-11-05T15:50:07.456Z,6.62
2022-11-05T15:52:43.125Z,6.59
2022-11-05T15:55:20.898Z,6.70
2022-11-05T15:57:52.661Z,6.68
2022-11-05T16:00:25.158Z,6.84
2022-11-05T16:03:00.419Z,6.65
2022-11-05T16:05:33.449Z,6.74
2022-11-05T16:08:06.026Z,6.74
2022-11-05T16:10:40.956Z,6.70
2022-11-05T16:13:45.149Z,6.76
2022-11-05T16:16:16.873Z,6.92
2022-11-05T16:21:57.859Z,6.98
2022-11-05T16:24:29.294Z,6.94
2022-11-05T16:27:02.938Z,6.88
2022-11-05T16:29:36.643Z,7.03
2022-11-05T16:32:14.583Z,6.93
2022-11-05T16:34:49.207Z,6.94
2022-11-05T16:37:24.271Z,7.00
2022-11-05T16:39:54.192Z,6.99
2022-11-05T16:42:26.865Z,7.07
2022-11-05T16:44:56.588Z,7.03
2022-11-05T16:47:27.154Z,7.02
2022-11-05T16:49:55.947Z,7.10
2022-11-05T16:52:24.736Z,7.08
2022-11-05T16:54:54.603Z,7.08
2022-11-05T16:57:28.128Z,7.09
2022-11-05T16:59:59.853Z,7.11
2022-11-05T17:02:29.272Z,7.08
2022-11-05T17:04:58.219Z,7.19
2022-11-05T17:07:29.101Z,7.26
2022-11-05T17:10:09.615Z,7.27
2022-11-05T17:12:38.657Z,7.19
2022-11-05T17:15:27.019Z,7.23
2022-11-05T17:17:57.479Z,7.30
2022-11-05T17:20:42.496Z,7.37
2022-11-05T17:23:14.746Z,7.30
2022-11-05T17:25:51.003Z,7.29
2022-11-05T17:28:20.459Z,7.26
2022-11-05T17:30:58.084Z,7.38
2022-11-05T17:33:26.988Z,7.46
2022-11-05T17:35:59.220Z,7.53
2022-11-05T17:38:34.550Z,7.58
2022-11-05T17:41:10.641Z,7.58
2022-11-05T17:43:39.713Z,7.60
2022-11-05T17:49:25.469Z,7.60
2022-11-05T17:51:54.949Z,7.68
2022-11-05T17:54:23.792Z,7.74
2022-11-05T17:56:52.758Z,7.77
2022-11-05T17:59:21.652Z,7.89
2022-11-05T18:01:56.086Z,7.99
2022-11-05T18:04:25.411Z,8.13
2022-11-05T18:06:54.913Z,7.94
2022-11-05T18:09:23.917Z,7.98
2022-11-05T18:11:54.992Z,8.18
2022-11-05T18:14:24.398Z,8.30
2022-11-05T18:16:56.194Z,8.30
2022-11-05T18:19:29.409Z,8.11
2022-11-05T18:21:58.617Z,7.83
2022-11-05T18:24:30.674Z,7.99
2022-11-05T18:26:59.898Z,7.37
2022-11-05T18:29:33.117Z,7.39
2022-11-05T18:32:02.347Z,7.44
2022-11-05T18:34:34.151Z,7.40
2022-11-05T18:37:04.072Z,7.19
2022-11-05T18:39:34.041Z,7.20
2022-11-05T18:42:03.020Z,7.60
2022-11-05T18:44:37.856Z,7.72
2022-11-05T18:47:11.117Z,7.84
2022-11-05T18:49:46.506Z,7.59
2022-11-05T18:52:16.108Z,7.37
2022-11-05T18:54:50.832Z,7.73
2022-11-05T18:57:22.784Z,7.90
2022-11-05T18:59:53.876Z,7.50
2022-11-05T19:02:36.553Z,7.88
2022-11-05T19:05:27.954Z,8.18
2022-11-05T19:07:55.877Z,8.09
2022-11-05T19:10:25.358Z,7.74
2022-11-05T19:12:59.123Z,8.07
2022-11-05T19:15:30.435Z,8.37
2022-11-05T19:18:02.476Z,8.68
2022-11-05T19:20:36.652Z,8.43
2022-11-05T19:23:10.020Z,8.72
2022-11-05T19:30:13.673Z,9.01
2022-11-05T19:32:45.454Z,9.16
2022-11-05T19:35:14.340Z,9.04
2022-11-05T19:37:43.234Z,8.47
2022-11-05T19:40:29.724Z,9.12
2022-11-05T19:49:42.669Z,9.83
2022-11-05T19:52:11.714Z,9.82
2022-11-05T19:54:45.679Z,10.06
2022-11-05T19:57:15.013Z,10.27
2022-11-05T19:59:44.026Z,10.17
2022-11-05T20:02:17.052Z,9.77
2022-11-05T20:04:51.176Z,10.28
2022-11-05T20:07:20.305Z,9.91
2022-11-05T20:09:49.562Z,10.15
2022-11-05T20:12:18.761Z,9.99
2022-11-05T20:14:47.769Z,9.93
2022-11-05T20:17:17.261Z,9.99
2022-11-05T20:19:49.202Z,10.47
2022-11-05T20:22:18.382Z,11.11
2022-11-05T20:24:54.685Z,11.10
2022-11-05T20:27:28.171Z,11.42
2022-11-05T20:29:57.281Z,11.26
2022-11-05T20:32:29.259Z,11.76
2022-11-05T20:34:58.457Z,11.45
2022-11-05T20:37:27.418Z,10.63
2022-11-05T20:39:56.538Z,10.99
2022-11-05T20:42:26.230Z,10.32
2022-11-05T20:44:55.153Z,10.21
2022-11-05T20:47:27.721Z,10.07
2022-11-05T20:49:58.126Z,9.75
2022-11-05T20:52:28.721Z,9.94
2022-11-05T20:54:58.832Z,9.71
2022-11-05T20:57:40.590Z,9.87
2022-11-05T21:00:37.181Z,9.73
2022-11-05T21:03:06.630Z,9.81
2022-11-05T21:05:35.781Z,9.67
2022-11-05T21:08:04.753Z,9.36
2022-11-05T21:10:33.652Z,9.17
2022-11-05T21:13:02.614Z,9.25
2022-11-05T21:15:31.367Z,9.20
2022-11-05T21:18:01.035Z,9.14
2022-11-05T21:20:30.182Z,9.04
2022-11-05T21:22:59.005Z,8.91
2022-11-05T21:25:28.031Z,8.72
2022-11-05T21:27:56.776Z,8.43
2022-11-05T21:30:30.005Z,8.27
2022-11-05T21:33:21.347Z,8.28
2022-11-05T21:35:55.845Z,8.82
2022-11-05T21:38:28.193Z,9.58
2022-11-05T21:40:57.045Z,9.83
2022-11-05T21:43:26.164Z,10.63
2022-11-05T21:45:55.117Z,10.31
2022-11-05T21:48:31.245Z,10.35
2022-11-05T21:51:22.051Z,9.78
2022-11-05T21:54:13.654Z,9.53
2022-11-05T21:57:09.667Z,9.34
2022-11-05T21:59:52.944Z,9.01
2022-11-05T22:02:29.299Z,9.64
2022-11-05T22:05:00.700Z,9.89
2022-11-05T22:07:32.384Z,10.20
2022-11-05T22:10:01.830Z,10.55
2022-11-05T22:12:34.739Z,10.42
2022-11-05T22:15:04.639Z,9.68
2022-11-05T22:17:36.296Z,9.94
2022-11-05T22:20:07.163Z,9.77
2022-11-05T22:22:36.554Z,10.46
2022-11-05T22:25:05.864Z,10.09
2022-11-05T22:27:34.770Z,10.08
2022-11-05T22:30:03.674Z,10.36
2022-11-05T22:32:32.700Z,10.27
2022-11-05T22:35:01.549Z,10.48
2022-11-05T22:37:30.380Z,10.56
2022-11-05T22:40:00.254Z,10.43
2022-11-05T22:42:29.218Z,10.18
2022-11-05T22:44:59.701Z,10.20
2022-11-05T22:47:28.834Z,10.12
2022-11-05T22:49:59.023Z,10.05
2022-11-05T22:52:28.511Z,9.79
2022-11-05T22:54:57.363Z,9.57
2022-11-05T22:57:28.653Z,9.46
2022-11-05T22:59:57.628Z,9.11
2022-11-05T23:02:26.627Z,9.12
2022-11-05T23:04:56.756Z,9.21
2022-11-05T23:19:45.076Z,8.93
2022-11-05T23:22:42.731Z,8.76
2022-11-05T23:25:31.122Z,9.15
2022-11-05T23:28:16.089Z,9.26
2022-11-05T23:31:04.262Z,8.92
2022-11-05T23:33:35.555Z,8.98
2022-11-05T23:36:23.844Z,8.99
2022-11-05T23:38:52.839Z,9.01
2022-11-05T23:41:43.263Z,9.07
2022-11-05T23:44:30.687Z,9.08
2022-11-05T23:47:18.997Z,9.13
2022-11-05T23:49:50.569Z,9.15
2022-11-05T23:52:34.940Z,9.28
2022-11-05T23:55:12.336Z,9.50
2022-11-05T23:59:18.325Z,9.91
